This is the latest recevied weather packets stored in our database for station/object OE3DJB-10. If no packets are shown the sender has not sent any weather packets the latest 1 day(s).
| Time | Temp. | Humidity | Pressure | Rain* | Wind** | Luminosity | Snow |
|---|---|---|---|---|---|---|---|
| 1778363867 | 16.67° C | 43% | 1022.9 hPa | - | - | - | - |
| 1778362967 | 16.67° C | 43% | 1022.8 hPa | - | - | - | - |
| 1778362067 | 16.67° C | 43% | 1022.9 hPa | - | - | - | - |
| 1778361166 | 16.67° C | 43% | 1022.8 hPa | - | - | - | - |
| 1778360266 | 17.22° C | 43% | 1022.8 hPa | - | - | - | - |
| 1778359366 | 17.22° C | 43% | 1022.7 hPa | - | - | - | - |
| 1778358466 | 17.22° C | 43% | 1022.6 hPa | - | - | - | - |
| 1778357679 | 20° C | 41% | 1021.5 hPa | - | - | - | - |
| 1778357679 | 18.89° C | 42% | 1022 hPa | - | - | - | - |
| 1778357678 | 22.22° C | 41% | 1021.6 hPa | - | - | - | - |
| 1778357678 | 20° C | 41% | 1021.4 hPa | - | - | - | - |
| 1778357678 | 21.11° C | 40% | 1021.3 hPa | - | - | - | - |
| 1778357678 | 20.56° C | 41% | 1021.3 hPa | - | - | - | - |
| 1778357678 | 22.22° C | 42% | 1021.6 hPa | - | - | - | - |
| 1778357677 | 21.67° C | 43% | 1021.6 hPa | - | - | - | - |
| 1778357677 | 20° C | 45% | 1022.3 hPa | - | - | - | - |
| 1778357566 | 17.78° C | 43% | 1022.5 hPa | - | - | - | - |
| 1778356666 | 17.78° C | 43% | 1022.5 hPa | - | - | - | - |
| 1778355766 | 17.78° C | 42% | 1022.3 hPa | - | - | - | - |
| 1778354865 | 18.33° C | 43% | 1022.2 hPa | - | - | - | - |
| 1778353965 | 18.33° C | 42% | 1022.2 hPa | - | - | - | - |
| 1778353065 | 18.89° C | 42% | 1022 hPa | - | - | - | - |
| 1778352165 | 18.89° C | 42% | 1021.9 hPa | - | - | - | - |
| 1778351265 | 19.44° C | 42% | 1021.7 hPa | - | - | - | - |
| 1778350365 | 19.44° C | 42% | 1021.6 hPa | - | - | - | - |
* Rain since midnight (hover to see other rain measurements)
** Current wind speed in m/s (hover to see current wind gust speed)